sensor_id;sensor_type;location;lat;lon;timestamp;P1;P2;P0
72467;PMS3003;60626;43.582;1.470;2022-08-30T00:01:05;5.00;5.00;4.25
72467;PMS3003;60626;43.582;1.470;2022-08-30T00:03:43;7.25;4.50;4.00
72467;PMS3003;60626;43.582;1.470;2022-08-30T00:06:12;6.50;6.50;5.00
72467;PMS3003;60626;43.582;1.470;2022-08-30T00:08:41;5.75;5.75;5.00
72467;PMS3003;60626;43.582;1.470;2022-08-30T00:11:09;5.00;5.00;4.00
72467;PMS3003;60626;43.582;1.470;2022-08-30T00:13:38;7.50;5.25;4.00
72467;PMS3003;60626;43.582;1.470;2022-08-30T00:16:07;5.00;5.00;4.75
72467;PMS3003;60626;43.582;1.470;2022-08-30T00:18:34;11.50;10.00;8.00
72467;PMS3003;60626;43.582;1.470;2022-08-30T00:21:02;7.25;7.25;5.25
72467;PMS3003;60626;43.582;1.470;2022-08-30T00:23:30;4.75;4.75;4.00
72467;PMS3003;60626;43.582;1.470;2022-08-30T00:25:57;5.50;5.00;4.25
72467;PMS3003;60626;43.582;1.470;2022-08-30T00:28:24;8.00;6.25;5.50
72467;PMS3003;60626;43.582;1.470;2022-08-30T00:30:51;7.75;6.00;5.00
72467;PMS3003;60626;43.582;1.470;2022-08-30T00:33:18;6.25;6.25;5.25
72467;PMS3003;60626;43.582;1.470;2022-08-30T00:35:45;5.75;5.75;5.00
72467;PMS3003;60626;43.582;1.470;2022-08-30T00:38:12;6.00;6.00;5.00
72467;PMS3003;60626;43.582;1.470;2022-08-30T00:40:40;6.25;6.25;5.50
72467;PMS3003;60626;43.582;1.470;2022-08-30T00:43:14;6.50;6.50;5.25
72467;PMS3003;60626;43.582;1.470;2022-08-30T00:45:45;7.50;6.25;5.00
72467;PMS3003;60626;43.582;1.470;2022-08-30T00:48:12;9.00;6.25;5.25
72467;PMS3003;60626;43.582;1.470;2022-08-30T00:50:41;6.25;6.25;5.25
72467;PMS3003;60626;43.582;1.470;2022-08-30T00:53:15;4.00;4.00;3.75
72467;PMS3003;60626;43.582;1.470;2022-08-30T00:55:45;5.25;5.25;4.75
72467;PMS3003;60626;43.582;1.470;2022-08-30T00:58:16;6.50;6.50;5.00
72467;PMS3003;60626;43.582;1.470;2022-08-30T01:00:48;5.00;5.00;4.25
72467;PMS3003;60626;43.582;1.470;2022-08-30T01:03:17;5.25;5.25;5.00
72467;PMS3003;60626;43.582;1.470;2022-08-30T01:05:43;6.50;6.50;5.00
72467;PMS3003;60626;43.582;1.470;2022-08-30T01:08:12;7.25;6.00;4.00
72467;PMS3003;60626;43.582;1.470;2022-08-30T01:10:40;6.00;6.00;5.00
72467;PMS3003;60626;43.582;1.470;2022-08-30T01:13:08;7.25;7.00;6.00
72467;PMS3003;60626;43.582;1.470;2022-08-30T01:15:36;7.00;7.00;6.75
72467;PMS3003;60626;43.582;1.470;2022-08-30T01:18:03;7.25;6.00;5.00
72467;PMS3003;60626;43.582;1.470;2022-08-30T01:20:43;6.50;5.25;4.00
72467;PMS3003;60626;43.582;1.470;2022-08-30T01:23:16;5.00;5.00;5.00
72467;PMS3003;60626;43.582;1.470;2022-08-30T01:25:46;7.00;6.00;5.00
72467;PMS3003;60626;43.582;1.470;2022-08-30T01:28:17;5.75;5.00;4.00
72467;PMS3003;60626;43.582;1.470;2022-08-30T01:30:48;8.50;7.25;6.00
72467;PMS3003;60626;43.582;1.470;2022-08-30T01:33:15;7.25;7.25;6.00
72467;PMS3003;60626;43.582;1.470;2022-08-30T01:38:16;8.00;6.25;5.00
72467;PMS3003;60626;43.582;1.470;2022-08-30T01:40:44;7.50;6.00;5.00
72467;PMS3003;60626;43.582;1.470;2022-08-30T01:43:12;9.00;8.25;6.50
72467;PMS3003;60626;43.582;1.470;2022-08-30T01:45:40;9.00;9.00;7.75
72467;PMS3003;60626;43.582;1.470;2022-08-30T01:48:08;6.75;6.75;5.00
72467;PMS3003;60626;43.582;1.470;2022-08-30T01:50:39;10.00;10.00;7.00
72467;PMS3003;60626;43.582;1.470;2022-08-30T01:53:07;8.25;8.25;6.50
72467;PMS3003;60626;43.582;1.470;2022-08-30T01:55:38;8.00;8.00;6.00
72467;PMS3003;60626;43.582;1.470;2022-08-30T01:58:05;12.75;11.25;8.25
72467;PMS3003;60626;43.582;1.470;2022-08-30T02:00:32;8.25;8.25;7.00
72467;PMS3003;60626;43.582;1.470;2022-08-30T02:02:59;10.75;10.75;8.00
72467;PMS3003;60626;43.582;1.470;2022-08-30T02:05:26;11.50;10.00;8.00
72467;PMS3003;60626;43.582;1.470;2022-08-30T02:07:52;10.00;10.00;8.00
72467;PMS3003;60626;43.582;1.470;2022-08-30T02:10:19;10.00;10.00;9.00
72467;PMS3003;60626;43.582;1.470;2022-08-30T02:12:46;14.50;11.25;7.75
72467;PMS3003;60626;43.582;1.470;2022-08-30T02:15:13;8.75;8.75;7.50
72467;PMS3003;60626;43.582;1.470;2022-08-30T02:17:39;10.25;10.25;8.25
72467;PMS3003;60626;43.582;1.470;2022-08-30T02:20:07;10.75;10.75;9.00
72467;PMS3003;60626;43.582;1.470;2022-08-30T02:22:35;12.25;10.75;8.00
72467;PMS3003;60626;43.582;1.470;2022-08-30T02:25:06;13.50;13.50;11.00
72467;PMS3003;60626;43.582;1.470;2022-08-30T02:27:46;13.75;11.25;8.50
72467;PMS3003;60626;43.582;1.470;2022-08-30T02:30:13;14.75;13.50;10.50
72467;PMS3003;60626;43.582;1.470;2022-08-30T02:32:40;15.25;13.50;10.75
72467;PMS3003;60626;43.582;1.470;2022-08-30T02:35:06;17.75;14.75;11.00
72467;PMS3003;60626;43.582;1.470;2022-08-30T02:37:33;16.50;13.25;11.25
72467;PMS3003;60626;43.582;1.470;2022-08-30T02:40:00;15.50;14.50;11.75
72467;PMS3003;60626;43.582;1.470;2022-08-30T02:42:30;16.00;15.75;11.50
72467;PMS3003;60626;43.582;1.470;2022-08-30T02:44:57;14.25;12.50;10.75
72467;PMS3003;60626;43.582;1.470;2022-08-30T02:47:23;14.50;14.50;11.25
72467;PMS3003;60626;43.582;1.470;2022-08-30T02:49:50;14.25;14.25;10.25
72467;PMS3003;60626;43.582;1.470;2022-08-30T02:52:17;14.25;13.25;10.75
72467;PMS3003;60626;43.582;1.470;2022-08-30T02:54:52;15.50;14.25;11.25
72467;PMS3003;60626;43.582;1.470;2022-08-30T02:57:20;15.25;15.25;11.25
72467;PMS3003;60626;43.582;1.470;2022-08-30T02:59:47;14.50;13.25;10.50
72467;PMS3003;60626;43.582;1.470;2022-08-30T03:02:14;15.25;15.25;11.75
72467;PMS3003;60626;43.582;1.470;2022-08-30T03:04:41;16.25;14.25;10.25
72467;PMS3003;60626;43.582;1.470;2022-08-30T03:07:10;15.50;14.00;12.00
72467;PMS3003;60626;43.582;1.470;2022-08-30T03:09:38;12.25;12.25;10.00
72467;PMS3003;60626;43.582;1.470;2022-08-30T03:12:05;15.00;15.00;12.00
72467;PMS3003;60626;43.582;1.470;2022-08-30T03:14:33;14.75;13.00;10.75
72467;PMS3003;60626;43.582;1.470;2022-08-30T03:17:04;17.75;14.50;12.00
72467;PMS3003;60626;43.582;1.470;2022-08-30T03:19:40;12.50;12.50;9.75
72467;PMS3003;60626;43.582;1.470;2022-08-30T03:22:07;14.25;13.25;10.00
72467;PMS3003;60626;43.582;1.470;2022-08-30T03:24:34;14.00;14.00;10.50
72467;PMS3003;60626;43.582;1.470;2022-08-30T03:27:01;14.00;14.00;11.25
72467;PMS3003;60626;43.582;1.470;2022-08-30T03:29:28;15.00;12.50;9.75
72467;PMS3003;60626;43.582;1.470;2022-08-30T03:31:56;12.50;12.50;8.50
72467;PMS3003;60626;43.582;1.470;2022-08-30T03:34:23;19.25;15.25;11.50
72467;PMS3003;60626;43.582;1.470;2022-08-30T03:36:52;12.50;12.50;9.50
72467;PMS3003;60626;43.582;1.470;2022-08-30T03:39:20;12.75;12.50;9.25
72467;PMS3003;60626;43.582;1.470;2022-08-30T03:41:48;14.25;13.75;10.00
72467;PMS3003;60626;43.582;1.470;2022-08-30T03:44:17;14.75;14.75;12.00
72467;PMS3003;60626;43.582;1.470;2022-08-30T03:46:44;13.25;13.00;11.00
72467;PMS3003;60626;43.582;1.470;2022-08-30T03:49:13;14.75;13.50;11.25
72467;PMS3003;60626;43.582;1.470;2022-08-30T03:51:40;15.25;13.75;11.00
72467;PMS3003;60626;43.582;1.470;2022-08-30T03:54:07;14.75;14.75;11.25
72467;PMS3003;60626;43.582;1.470;2022-08-30T03:56:35;13.25;13.25;8.75
72467;PMS3003;60626;43.582;1.470;2022-08-30T03:59:02;13.75;13.75;10.50
72467;PMS3003;60626;43.582;1.470;2022-08-30T04:01:29;19.00;15.25;11.25
72467;PMS3003;60626;43.582;1.470;2022-08-30T04:03:56;19.00;15.25;12.25
72467;PMS3003;60626;43.582;1.470;2022-08-30T04:06:23;15.00;15.00;12.50
72467;PMS3003;60626;43.582;1.470;2022-08-30T04:08:50;16.75;15.00;11.25
72467;PMS3003;60626;43.582;1.470;2022-08-30T04:11:17;15.00;14.00;11.50
72467;PMS3003;60626;43.582;1.470;2022-08-30T04:13:43;15.00;14.50;11.00
72467;PMS3003;60626;43.582;1.470;2022-08-30T04:16:10;15.50;14.00;10.25
72467;PMS3003;60626;43.582;1.470;2022-08-30T04:18:37;16.75;15.50;12.25
72467;PMS3003;60626;43.582;1.470;2022-08-30T04:21:04;16.25;14.75;11.25
72467;PMS3003;60626;43.582;1.470;2022-08-30T04:23:31;14.25;13.50;11.00
72467;PMS3003;60626;43.582;1.470;2022-08-30T04:25:58;16.50;14.25;11.25
72467;PMS3003;60626;43.582;1.470;2022-08-30T04:28:25;17.00;17.00;12.50
72467;PMS3003;60626;43.582;1.470;2022-08-30T04:30:51;16.00;13.25;11.00
72467;PMS3003;60626;43.582;1.470;2022-08-30T04:33:19;13.75;13.75;10.50
72467;PMS3003;60626;43.582;1.470;2022-08-30T04:35:47;14.25;14.25;12.25
72467;PMS3003;60626;43.582;1.470;2022-08-30T04:38:15;17.75;15.75;11.50
72467;PMS3003;60626;43.582;1.470;2022-08-30T04:40:43;18.25;16.50;13.00
72467;PMS3003;60626;43.582;1.470;2022-08-30T04:43:12;16.00;14.50;11.25
72467;PMS3003;60626;43.582;1.470;2022-08-30T04:45:39;16.50;14.75;12.25
72467;PMS3003;60626;43.582;1.470;2022-08-30T04:48:07;13.00;13.00;8.75
72467;PMS3003;60626;43.582;1.470;2022-08-30T04:50:34;15.25;14.25;11.00
72467;PMS3003;60626;43.582;1.470;2022-08-30T04:53:01;17.50;17.50;13.75
72467;PMS3003;60626;43.582;1.470;2022-08-30T04:55:27;17.25;16.00;12.50
72467;PMS3003;60626;43.582;1.470;2022-08-30T04:57:54;17.25;17.25;12.50
72467;PMS3003;60626;43.582;1.470;2022-08-30T05:00:21;15.25;15.25;12.00
72467;PMS3003;60626;43.582;1.470;2022-08-30T05:02:48;16.50;16.50;11.75
72467;PMS3003;60626;43.582;1.470;2022-08-30T05:05:15;15.75;15.75;12.00
72467;PMS3003;60626;43.582;1.470;2022-08-30T05:08:01;16.00;15.00;11.75
72467;PMS3003;60626;43.582;1.470;2022-08-30T05:10:28;16.50;14.50;10.75
72467;PMS3003;60626;43.582;1.470;2022-08-30T05:12:54;21.50;16.00;13.75
72467;PMS3003;60626;43.582;1.470;2022-08-30T05:15:22;16.50;16.00;11.75
72467;PMS3003;60626;43.582;1.470;2022-08-30T05:17:49;16.25;14.50;11.00
72467;PMS3003;60626;43.582;1.470;2022-08-30T05:20:16;14.00;13.50;11.00
72467;PMS3003;60626;43.582;1.470;2022-08-30T05:22:43;12.50;12.50;9.00
72467;PMS3003;60626;43.582;1.470;2022-08-30T05:25:20;15.00;14.00;9.75
72467;PMS3003;60626;43.582;1.470;2022-08-30T05:27:49;11.75;11.75;9.50
72467;PMS3003;60626;43.582;1.470;2022-08-30T05:30:16;14.25;12.50;10.25
72467;PMS3003;60626;43.582;1.470;2022-08-30T05:32:44;16.50;13.25;10.50
72467;PMS3003;60626;43.582;1.470;2022-08-30T05:35:12;11.50;11.25;9.00
72467;PMS3003;60626;43.582;1.470;2022-08-30T05:37:40;14.00;14.00;10.25
72467;PMS3003;60626;43.582;1.470;2022-08-30T05:40:07;10.50;10.50;9.50
72467;PMS3003;60626;43.582;1.470;2022-08-30T05:42:36;12.25;11.50;9.00
72467;PMS3003;60626;43.582;1.470;2022-08-30T05:45:07;11.25;11.25;9.00
72467;PMS3003;60626;43.582;1.470;2022-08-30T05:47:35;11.50;10.50;8.00
72467;PMS3003;60626;43.582;1.470;2022-08-30T05:50:02;10.50;9.00;7.00
72467;PMS3003;60626;43.582;1.470;2022-08-30T05:52:30;14.50;11.50;8.25
72467;PMS3003;60626;43.582;1.470;2022-08-30T05:54:56;9.00;7.50;5.75
72467;PMS3003;60626;43.582;1.470;2022-08-30T05:57:24;9.50;9.50;7.50
72467;PMS3003;60626;43.582;1.470;2022-08-30T05:59:52;10.25;10.25;7.00
72467;PMS3003;60626;43.582;1.470;2022-08-30T06:02:18;12.00;11.25;9.75
72467;PMS3003;60626;43.582;1.470;2022-08-30T06:04:45;11.50;10.25;8.00
72467;PMS3003;60626;43.582;1.470;2022-08-30T06:07:12;10.25;10.25;8.00
72467;PMS3003;60626;43.582;1.470;2022-08-30T06:09:42;10.00;10.00;6.25
72467;PMS3003;60626;43.582;1.470;2022-08-30T06:12:09;12.25;12.25;10.25
72467;PMS3003;60626;43.582;1.470;2022-08-30T06:14:36;13.25;11.50;8.25
72467;PMS3003;60626;43.582;1.470;2022-08-30T06:17:05;14.50;10.50;8.25
72467;PMS3003;60626;43.582;1.470;2022-08-30T06:19:32;14.00;13.25;9.00
72467;PMS3003;60626;43.582;1.470;2022-08-30T06:21:58;12.75;10.75;9.25
72467;PMS3003;60626;43.582;1.470;2022-08-30T06:24:26;10.50;9.25;8.00
72467;PMS3003;60626;43.582;1.470;2022-08-30T06:27:12;10.50;9.75;8.25
72467;PMS3003;60626;43.582;1.470;2022-08-30T06:29:40;11.50;11.00;8.25
72467;PMS3003;60626;43.582;1.470;2022-08-30T06:32:07;14.00;12.00;8.50
72467;PMS3003;60626;43.582;1.470;2022-08-30T06:34:33;13.00;13.00;10.00
72467;PMS3003;60626;43.582;1.470;2022-08-30T06:37:00;10.25;10.25;9.00
72467;PMS3003;60626;43.582;1.470;2022-08-30T06:39:27;12.25;10.75;8.00
72467;PMS3003;60626;43.582;1.470;2022-08-30T06:41:53;11.25;11.25;8.00
72467;PMS3003;60626;43.582;1.470;2022-08-30T06:44:20;10.25;10.25;8.25
72467;PMS3003;60626;43.582;1.470;2022-08-30T06:46:47;14.00;13.25;9.25
72467;PMS3003;60626;43.582;1.470;2022-08-30T06:49:14;12.75;11.00;9.25
72467;PMS3003;60626;43.582;1.470;2022-08-30T06:51:40;16.50;13.50;10.50
72467;PMS3003;60626;43.582;1.470;2022-08-30T06:54:09;12.75;12.75;8.75
72467;PMS3003;60626;43.582;1.470;2022-08-30T06:56:37;11.50;11.50;9.50
72467;PMS3003;60626;43.582;1.470;2022-08-30T06:59:07;11.75;10.00;7.75
72467;PMS3003;60626;43.582;1.470;2022-08-30T07:01:35;12.75;12.75;8.25
72467;PMS3003;60626;43.582;1.470;2022-08-30T07:04:01;13.00;12.00;9.00
72467;PMS3003;60626;43.582;1.470;2022-08-30T07:06:31;12.00;10.50;8.00
72467;PMS3003;60626;43.582;1.470;2022-08-30T07:08:59;11.75;11.75;9.50
72467;PMS3003;60626;43.582;1.470;2022-08-30T07:11:31;10.25;10.25;8.00
72467;PMS3003;60626;43.582;1.470;2022-08-30T07:14:00;10.00;10.00;8.25
72467;PMS3003;60626;43.582;1.470;2022-08-30T07:16:27;9.00;9.00;7.75
72467;PMS3003;60626;43.582;1.470;2022-08-30T07:18:54;9.25;9.25;8.00
72467;PMS3003;60626;43.582;1.470;2022-08-30T07:21:28;6.75;6.75;5.25
72467;PMS3003;60626;43.582;1.470;2022-08-30T07:23:57;7.50;7.50;6.25
72467;PMS3003;60626;43.582;1.470;2022-08-30T07:26:31;7.25;6.50;5.75
72467;PMS3003;60626;43.582;1.470;2022-08-30T07:29:00;8.00;8.00;7.00
72467;PMS3003;60626;43.582;1.470;2022-08-30T07:31:28;9.25;7.25;6.25
72467;PMS3003;60626;43.582;1.470;2022-08-30T07:33:55;9.00;7.50;6.25
72467;PMS3003;60626;43.582;1.470;2022-08-30T07:36:22;4.00;4.00;3.00
72467;PMS3003;60626;43.582;1.470;2022-08-30T07:38:50;10.00;10.00;7.25
72467;PMS3003;60626;43.582;1.470;2022-08-30T07:41:18;13.75;8.50;6.00
72467;PMS3003;60626;43.582;1.470;2022-08-30T07:43:50;9.25;6.50;5.00
72467;PMS3003;60626;43.582;1.470;2022-08-30T07:46:18;9.50;9.50;8.00
72467;PMS3003;60626;43.582;1.470;2022-08-30T07:48:46;7.75;7.75;6.50
72467;PMS3003;60626;43.582;1.470;2022-08-30T07:51:15;11.25;9.00;7.25
72467;PMS3003;60626;43.582;1.470;2022-08-30T07:53:47;11.75;10.00;8.00
72467;PMS3003;60626;43.582;1.470;2022-08-30T07:56:14;12.25;7.75;6.50
72467;PMS3003;60626;43.582;1.470;2022-08-30T07:58:42;10.00;8.25;6.75
72467;PMS3003;60626;43.582;1.470;2022-08-30T08:01:09;8.50;8.50;6.75
72467;PMS3003;60626;43.582;1.470;2022-08-30T08:03:38;12.50;9.25;7.00
72467;PMS3003;60626;43.582;1.470;2022-08-30T08:06:06;10.75;8.00;6.00
72467;PMS3003;60626;43.582;1.470;2022-08-30T08:08:35;7.25;5.75;5.00
72467;PMS3003;60626;43.582;1.470;2022-08-30T08:11:08;8.00;8.00;6.00
72467;PMS3003;60626;43.582;1.470;2022-08-30T08:13:41;15.00;8.75;6.75
72467;PMS3003;60626;43.582;1.470;2022-08-30T08:16:23;9.50;7.75;6.50
72467;PMS3003;60626;43.582;1.470;2022-08-30T08:18:51;7.25;7.25;6.00
72467;PMS3003;60626;43.582;1.470;2022-08-30T08:21:19;11.25;7.50;6.50
72467;PMS3003;60626;43.582;1.470;2022-08-30T08:23:47;6.25;5.50;5.00
72467;PMS3003;60626;43.582;1.470;2022-08-30T08:26:14;7.25;7.25;5.25
72467;PMS3003;60626;43.582;1.470;2022-08-30T08:28:40;9.00;8.00;6.00
72467;PMS3003;60626;43.582;1.470;2022-08-30T08:31:18;7.00;6.50;5.50
72467;PMS3003;60626;43.582;1.470;2022-08-30T08:33:49;6.75;6.75;6.00
72467;PMS3003;60626;43.582;1.470;2022-08-30T08:36:16;7.00;7.00;6.00
72467;PMS3003;60626;43.582;1.470;2022-08-30T08:38:43;9.00;7.00;6.00
72467;PMS3003;60626;43.582;1.470;2022-08-30T08:43:59;7.75;7.75;6.50
72467;PMS3003;60626;43.582;1.470;2022-08-30T08:46:36;6.50;6.25;5.00
72467;PMS3003;60626;43.582;1.470;2022-08-30T08:49:10;7.75;7.50;5.25
72467;PMS3003;60626;43.582;1.470;2022-08-30T08:51:38;5.50;5.50;4.25
72467;PMS3003;60626;43.582;1.470;2022-08-30T08:54:59;6.50;6.50;5.25
72467;PMS3003;60626;43.582;1.470;2022-08-30T08:57:17;7.00;7.00;5.50
72467;PMS3003;60626;43.582;1.470;2022-08-30T08:59:49;9.00;6.25;5.50
72467;PMS3003;60626;43.582;1.470;2022-08-30T09:02:24;7.25;7.25;6.25
72467;PMS3003;60626;43.582;1.470;2022-08-30T09:05:00;8.25;7.00;5.75
72467;PMS3003;60626;43.582;1.470;2022-08-30T09:07:31;7.75;7.75;5.00
72467;PMS3003;60626;43.582;1.470;2022-08-30T09:10:03;9.00;7.25;6.00
72467;PMS3003;60626;43.582;1.470;2022-08-30T09:12:30;8.50;7.00;5.25
72467;PMS3003;60626;43.582;1.470;2022-08-30T09:15:03;8.25;6.75;5.50
72467;PMS3003;60626;43.582;1.470;2022-08-30T09:17:50;7.50;7.50;5.75
72467;PMS3003;60626;43.582;1.470;2022-08-30T09:20:23;10.00;8.75;6.50
72467;PMS3003;60626;43.582;1.470;2022-08-30T09:22:59;9.50;5.75;5.25
72467;PMS3003;60626;43.582;1.470;2022-08-30T09:25:57;8.25;7.00;5.00
72467;PMS3003;60626;43.582;1.470;2022-08-30T09:28:31;6.00;6.00;5.25
72467;PMS3003;60626;43.582;1.470;2022-08-30T09:33:58;6.75;6.75;5.50
72467;PMS3003;60626;43.582;1.470;2022-08-30T09:36:32;6.75;6.75;6.00
72467;PMS3003;60626;43.582;1.470;2022-08-30T09:39:13;7.00;5.75;4.50
72467;PMS3003;60626;43.582;1.470;2022-08-30T09:41:42;10.75;7.75;6.00
72467;PMS3003;60626;43.582;1.470;2022-08-30T09:44:20;7.75;7.00;6.25
72467;PMS3003;60626;43.582;1.470;2022-08-30T09:46:56;7.75;7.00;6.00
72467;PMS3003;60626;43.582;1.470;2022-08-30T09:49:34;6.25;6.25;5.25
72467;PMS3003;60626;43.582;1.470;2022-08-30T09:54:37;6.00;5.75;4.50
72467;PMS3003;60626;43.582;1.470;2022-08-30T10:00:23;6.25;5.00;4.25
72467;PMS3003;60626;43.582;1.470;2022-08-30T10:06:27;7.25;6.25;5.25
72467;PMS3003;60626;43.582;1.470;2022-08-30T10:09:09;7.00;7.00;5.75
72467;PMS3003;60626;43.582;1.470;2022-08-30T10:11:51;9.25;9.00;7.00
72467;PMS3003;60626;43.582;1.470;2022-08-30T10:14:50;5.00;5.00;4.25
72467;PMS3003;60626;43.582;1.470;2022-08-30T10:23:15;7.00;7.00;5.25
72467;PMS3003;60626;43.582;1.470;2022-08-30T10:25:49;6.25;5.25;4.25
72467;PMS3003;60626;43.582;1.470;2022-08-30T10:28:37;8.25;5.25;4.75
72467;PMS3003;60626;43.582;1.470;2022-08-30T10:34:07;8.75;7.25;6.75
72467;PMS3003;60626;43.582;1.470;2022-08-30T10:36:43;6.00;6.00;5.00
72467;PMS3003;60626;43.582;1.470;2022-08-30T10:39:30;7.00;6.25;5.50
72467;PMS3003;60626;43.582;1.470;2022-08-30T10:42:04;9.25;8.25;6.50
72467;PMS3003;60626;43.582;1.470;2022-08-30T10:44:38;10.00;8.00;6.25
72467;PMS3003;60626;43.582;1.470;2022-08-30T10:49:37;9.00;9.00;7.00
72467;PMS3003;60626;43.582;1.470;2022-08-30T10:55:10;10.25;6.75;5.75
72467;PMS3003;60626;43.582;1.470;2022-08-30T10:57:41;8.25;8.00;6.75
72467;PMS3003;60626;43.582;1.470;2022-08-30T11:00:09;8.00;6.50;6.00
72467;PMS3003;60626;43.582;1.470;2022-08-30T11:05:46;13.25;8.25;6.50
72467;PMS3003;60626;43.582;1.470;2022-08-30T11:11:14;9.00;8.00;5.75
72467;PMS3003;60626;43.582;1.470;2022-08-30T11:13:51;7.50;7.50;6.50
72467;PMS3003;60626;43.582;1.470;2022-08-30T11:16:32;6.50;6.50;6.25
72467;PMS3003;60626;43.582;1.470;2022-08-30T11:19:02;9.50;7.50;7.00
72467;PMS3003;60626;43.582;1.470;2022-08-30T11:21:38;8.00;8.00;7.00
72467;PMS3003;60626;43.582;1.470;2022-08-30T11:24:07;9.00;8.50;7.50
72467;PMS3003;60626;43.582;1.470;2022-08-30T11:39:57;6.50;6.50;6.00
72467;PMS3003;60626;43.582;1.470;2022-08-30T11:42:31;6.25;6.25;5.25
72467;PMS3003;60626;43.582;1.470;2022-08-30T11:47:59;8.00;8.00;6.00
72467;PMS3003;60626;43.582;1.470;2022-08-30T11:56:04;6.25;6.25;5.50
72467;PMS3003;60626;43.582;1.470;2022-08-30T11:58:47;7.25;7.25;6.25
72467;PMS3003;60626;43.582;1.470;2022-08-30T12:04:24;13.00;7.25;6.00
72467;PMS3003;60626;43.582;1.470;2022-08-30T12:06:54;10.25;9.00;6.00
72467;PMS3003;60626;43.582;1.470;2022-08-30T12:17:22;6.75;6.75;6.25
72467;PMS3003;60626;43.582;1.470;2022-08-30T12:20:27;7.25;5.75;4.00
72467;PMS3003;60626;43.582;1.470;2022-08-30T12:29:04;8.00;7.50;6.50
72467;PMS3003;60626;43.582;1.470;2022-08-30T12:31:43;7.00;7.00;6.25
72467;PMS3003;60626;43.582;1.470;2022-08-30T12:34:31;11.00;10.00;7.50
72467;PMS3003;60626;43.582;1.470;2022-08-30T12:40:15;11.25;9.75;7.00
72467;PMS3003;60626;43.582;1.470;2022-08-30T12:45:18;8.25;8.25;7.00
72467;PMS3003;60626;43.582;1.470;2022-08-30T12:50:20;10.50;8.00;7.00
72467;PMS3003;60626;43.582;1.470;2022-08-30T12:52:57;8.00;6.75;5.50
72467;PMS3003;60626;43.582;1.470;2022-08-30T12:58:32;9.00;6.75;5.00
72467;PMS3003;60626;43.582;1.470;2022-08-30T13:09:21;7.75;6.75;6.00
72467;PMS3003;60626;43.582;1.470;2022-08-30T13:12:19;7.75;6.75;5.75
72467;PMS3003;60626;43.582;1.470;2022-08-30T13:14:50;7.50;7.50;6.25
72467;PMS3003;60626;43.582;1.470;2022-08-30T13:17:22;12.00;9.75;7.50
72467;PMS3003;60626;43.582;1.470;2022-08-30T13:23:00;9.00;9.00;7.75
72467;PMS3003;60626;43.582;1.470;2022-08-30T13:25:34;10.00;10.00;7.25
72467;PMS3003;60626;43.582;1.470;2022-08-30T13:28:04;11.50;10.50;7.00
72467;PMS3003;60626;43.582;1.470;2022-08-30T13:30:33;10.25;10.25;7.75
72467;PMS3003;60626;43.582;1.470;2022-08-30T13:33:00;9.00;9.00;7.25
72467;PMS3003;60626;43.582;1.470;2022-08-30T13:35:28;8.50;8.50;7.00
72467;PMS3003;60626;43.582;1.470;2022-08-30T13:37:56;9.50;9.50;8.00
72467;PMS3003;60626;43.582;1.470;2022-08-30T13:40:25;11.25;11.25;9.00
72467;PMS3003;60626;43.582;1.470;2022-08-30T13:42:52;10.50;10.50;8.75
72467;PMS3003;60626;43.582;1.470;2022-08-30T13:45:19;9.50;9.00;8.00
72467;PMS3003;60626;43.582;1.470;2022-08-30T13:48:06;10.50;9.25;8.00
72467;PMS3003;60626;43.582;1.470;2022-08-30T13:50:32;11.50;10.25;8.50
72467;PMS3003;60626;43.582;1.470;2022-08-30T13:52:59;9.25;9.25;7.25
72467;PMS3003;60626;43.582;1.470;2022-08-30T13:55:26;10.00;10.00;7.50
72467;PMS3003;60626;43.582;1.470;2022-08-30T13:57:53;9.50;9.25;7.25
72467;PMS3003;60626;43.582;1.470;2022-08-30T14:00:22;11.00;11.00;9.50
72467;PMS3003;60626;43.582;1.470;2022-08-30T14:02:50;12.50;11.00;7.25
72467;PMS3003;60626;43.582;1.470;2022-08-30T14:05:35;12.25;10.00;9.00
72467;PMS3003;60626;43.582;1.470;2022-08-30T14:08:24;11.00;9.25;7.00
72467;PMS3003;60626;43.582;1.470;2022-08-30T14:11:13;9.50;9.50;7.50
72467;PMS3003;60626;43.582;1.470;2022-08-30T14:13:44;10.00;8.75;8.00
72467;PMS3003;60626;43.582;1.470;2022-08-30T14:16:31;13.25;10.25;8.25
72467;PMS3003;60626;43.582;1.470;2022-08-30T14:18:59;11.00;9.50;7.00
72467;PMS3003;60626;43.582;1.470;2022-08-30T14:21:27;10.75;7.50;6.00
72467;PMS3003;60626;43.582;1.470;2022-08-30T14:23:54;11.50;9.25;6.50
72467;PMS3003;60626;43.582;1.470;2022-08-30T14:26:25;10.00;9.00;7.25
72467;PMS3003;60626;43.582;1.470;2022-08-30T14:28:59;7.75;7.75;6.75
72467;PMS3003;60626;43.582;1.470;2022-08-30T14:31:27;10.50;10.50;8.50
72467;PMS3003;60626;43.582;1.470;2022-08-30T14:34:01;12.50;9.50;6.50
72467;PMS3003;60626;43.582;1.470;2022-08-30T14:36:30;6.75;6.75;6.25
72467;PMS3003;60626;43.582;1.470;2022-08-30T14:39:02;7.50;7.50;6.00
72467;PMS3003;60626;43.582;1.470;2022-08-30T14:41:34;7.75;7.75;6.00
72467;PMS3003;60626;43.582;1.470;2022-08-30T14:44:09;9.25;8.00;6.25
72467;PMS3003;60626;43.582;1.470;2022-08-30T14:46:36;7.00;7.00;5.75
72467;PMS3003;60626;43.582;1.470;2022-08-30T14:49:05;5.50;5.00;5.00
72467;PMS3003;60626;43.582;1.470;2022-08-30T14:51:35;7.75;6.25;4.75
72467;PMS3003;60626;43.582;1.470;2022-08-30T14:54:02;5.25;5.25;4.75
72467;PMS3003;60626;43.582;1.470;2022-08-30T14:56:29;7.00;5.50;4.75
72467;PMS3003;60626;43.582;1.470;2022-08-30T14:58:56;5.00;4.50;4.00
72467;PMS3003;60626;43.582;1.470;2022-08-30T15:01:26;7.00;7.00;4.50
72467;PMS3003;60626;43.582;1.470;2022-08-30T15:03:53;5.00;5.00;4.00
72467;PMS3003;60626;43.582;1.470;2022-08-30T15:06:20;6.00;6.00;5.00
72467;PMS3003;60626;43.582;1.470;2022-08-30T15:08:51;9.00;5.75;4.00
72467;PMS3003;60626;43.582;1.470;2022-08-30T15:11:20;9.75;8.00;6.00
72467;PMS3003;60626;43.582;1.470;2022-08-30T15:13:48;7.00;5.75;4.50
72467;PMS3003;60626;43.582;1.470;2022-08-30T15:16:22;5.00;5.00;4.00
72467;PMS3003;60626;43.582;1.470;2022-08-30T15:18:54;7.00;7.00;5.50
72467;PMS3003;60626;43.582;1.470;2022-08-30T15:21:23;5.00;5.00;4.75
72467;PMS3003;60626;43.582;1.470;2022-08-30T15:23:52;5.75;4.00;4.00
72467;PMS3003;60626;43.582;1.470;2022-08-30T15:26:21;6.50;6.00;5.00
72467;PMS3003;60626;43.582;1.470;2022-08-30T15:28:49;5.00;5.00;4.00
72467;PMS3003;60626;43.582;1.470;2022-08-30T15:31:20;7.50;6.00;5.00
72467;PMS3003;60626;43.582;1.470;2022-08-30T15:33:49;7.00;6.50;5.25
72467;PMS3003;60626;43.582;1.470;2022-08-30T15:36:17;8.25;7.00;6.25
72467;PMS3003;60626;43.582;1.470;2022-08-30T15:38:43;7.00;7.00;5.00
72467;PMS3003;60626;43.582;1.470;2022-08-30T15:41:10;6.50;6.50;5.50
72467;PMS3003;60626;43.582;1.470;2022-08-30T15:43:38;6.00;6.00;5.25
72467;PMS3003;60626;43.582;1.470;2022-08-30T15:48:42;6.25;6.25;5.25
72467;PMS3003;60626;43.582;1.470;2022-08-30T15:51:11;4.75;4.50;2.25
72467;PMS3003;60626;43.582;1.470;2022-08-30T15:53:38;6.50;6.00;5.00
72467;PMS3003;60626;43.582;1.470;2022-08-30T15:56:06;5.00;5.00;4.00
72467;PMS3003;60626;43.582;1.470;2022-08-30T15:58:33;7.00;7.00;5.00
72467;PMS3003;60626;43.582;1.470;2022-08-30T16:01:00;7.00;6.00;4.75
72467;PMS3003;60626;43.582;1.470;2022-08-30T16:03:28;6.00;5.00;4.00
72467;PMS3003;60626;43.582;1.470;2022-08-30T16:05:55;7.00;4.25;4.00
72467;PMS3003;60626;43.582;1.470;2022-08-30T16:08:22;5.00;5.00;4.75